sensor_id;sensor_type;location;lat;lon;timestamp;pressure;altitude;pressure_sealevel;temperature;humidity
7335;BME280;3708;42.632;23.378;2022-12-07T00:01:04;94276.75;;;9.85;57.56
7335;BME280;3708;42.632;23.378;2022-12-07T00:03:32;94275.53;;;9.74;57.55
7335;BME280;3708;42.632;23.378;2022-12-07T00:06:03;94277.19;;;9.87;57.33
7335;BME280;3708;42.632;23.378;2022-12-07T00:08:32;94267.84;;;9.78;57.55
7335;BME280;3708;42.632;23.378;2022-12-07T00:11:02;94272.13;;;9.82;57.54
7335;BME280;3708;42.632;23.378;2022-12-07T00:13:31;94272.47;;;9.72;57.71
7335;BME280;3708;42.632;23.378;2022-12-07T00:16:08;94272.63;;;9.67;57.47
7335;BME280;3708;42.632;23.378;2022-12-07T00:18:36;94260.31;;;9.68;57.96
7335;BME280;3708;42.632;23.378;2022-12-07T00:21:05;94266.50;;;9.63;57.99
7335;BME280;3708;42.632;23.378;2022-12-07T00:23:33;94261.72;;;9.65;57.84
7335;BME280;3708;42.632;23.378;2022-12-07T00:26:05;94260.63;;;9.66;57.88
7335;BME280;3708;42.632;23.378;2022-12-07T00:28:35;94258.66;;;9.55;58.19
7335;BME280;3708;42.632;23.378;2022-12-07T00:31:05;94266.50;;;9.63;58.15
7335;BME280;3708;42.632;23.378;2022-12-07T00:33:33;94255.38;;;9.66;58.16
7335;BME280;3708;42.632;23.378;2022-12-07T00:36:00;94250.44;;;9.73;58.14
7335;BME280;3708;42.632;23.378;2022-12-07T00:38:28;94260.13;;;9.73;58.08
7335;BME280;3708;42.632;23.378;2022-12-07T00:40:56;94261.97;;;9.81;58.10
7335;BME280;3708;42.632;23.378;2022-12-07T00:43:23;94263.03;;;9.88;57.88
7335;BME280;3708;42.632;23.378;2022-12-07T00:45:52;94267.63;;;9.91;57.72
7335;BME280;3708;42.632;23.378;2022-12-07T00:48:20;94253.13;;;10.03;57.67
7335;BME280;3708;42.632;23.378;2022-12-07T00:50:48;94254.03;;;10.07;57.33
7335;BME280;3708;42.632;23.378;2022-12-07T00:53:16;94249.69;;;9.73;57.83
7335;BME280;3708;42.632;23.378;2022-12-07T00:55:47;94250.38;;;9.44;59.00
7335;BME280;3708;42.632;23.378;2022-12-07T00:58:14;94247.69;;;9.70;58.43
7335;BME280;3708;42.632;23.378;2022-12-07T01:00:42;94236.56;;;9.81;58.29
7335;BME280;3708;42.632;23.378;2022-12-07T01:03:13;94243.59;;;9.43;58.66
7335;BME280;3708;42.632;23.378;2022-12-07T01:05:40;94252.19;;;9.61;58.53
7335;BME280;3708;42.632;23.378;2022-12-07T01:08:15;94256.63;;;9.60;58.49
7335;BME280;3708;42.632;23.378;2022-12-07T01:10:43;94264.47;;;9.60;58.73
7335;BME280;3708;42.632;23.378;2022-12-07T01:13:18;94260.19;;;9.56;58.81
7335;BME280;3708;42.632;23.378;2022-12-07T01:15:56;94248.69;;;9.48;58.67
7335;BME280;3708;42.632;23.378;2022-12-07T01:18:33;94241.44;;;9.45;59.20
7335;BME280;3708;42.632;23.378;2022-12-07T01:21:02;94245.88;;;9.53;59.03
7335;BME280;3708;42.632;23.378;2022-12-07T01:23:35;94248.97;;;9.55;58.97
7335;BME280;3708;42.632;23.378;2022-12-07T01:26:05;94239.44;;;9.59;58.95
7335;BME280;3708;42.632;23.378;2022-12-07T01:28:33;94232.03;;;9.61;59.25
7335;BME280;3708;42.632;23.378;2022-12-07T01:31:09;94230.50;;;9.60;59.10
7335;BME280;3708;42.632;23.378;2022-12-07T01:33:39;94229.97;;;9.29;59.96
7335;BME280;3708;42.632;23.378;2022-12-07T01:36:14;94241.63;;;9.40;59.91
7335;BME280;3708;42.632;23.378;2022-12-07T01:38:44;94237.41;;;9.65;59.38
7335;BME280;3708;42.632;23.378;2022-12-07T01:41:28;94234.91;;;9.68;59.21
7335;BME280;3708;42.632;23.378;2022-12-07T01:44:16;94230.59;;;9.81;59.30
7335;BME280;3708;42.632;23.378;2022-12-07T01:46:50;94239.94;;;9.90;58.64
7335;BME280;3708;42.632;23.378;2022-12-07T01:49:54;94235.19;;;9.84;58.47
7335;BME280;3708;42.632;23.378;2022-12-07T01:52:15;94239.63;;;9.83;58.54
7335;BME280;3708;42.632;23.378;2022-12-07T01:54:56;94228.75;;;9.73;58.64
7335;BME280;3708;42.632;23.378;2022-12-07T01:57:25;94227.81;;;9.31;59.21
7335;BME280;3708;42.632;23.378;2022-12-07T01:59:58;94217.94;;;9.28;60.23
7335;BME280;3708;42.632;23.378;2022-12-07T02:02:36;94221.31;;;9.46;59.92
7335;BME280;3708;42.632;23.378;2022-12-07T02:05:11;94220.06;;;9.52;59.38
7335;BME280;3708;42.632;23.378;2022-12-07T02:07:42;94218.69;;;9.46;59.50
7335;BME280;3708;42.632;23.378;2022-12-07T02:10:17;94223.31;;;9.32;59.89
7335;BME280;3708;42.632;23.378;2022-12-07T02:12:52;94211.81;;;9.24;60.07
7335;BME280;3708;42.632;23.378;2022-12-07T02:15:36;94202.72;;;9.30;60.32
7335;BME280;3708;42.632;23.378;2022-12-07T02:18:17;94214.53;;;9.36;60.39
7335;BME280;3708;42.632;23.378;2022-12-07T02:20:57;94218.09;;;9.32;60.07
7335;BME280;3708;42.632;23.378;2022-12-07T02:23:40;94218.09;;;9.23;60.50
7335;BME280;3708;42.632;23.378;2022-12-07T02:29:27;94219.22;;;8.71;61.61
7335;BME280;3708;42.632;23.378;2022-12-07T02:32:04;94214.50;;;8.16;63.94
7335;BME280;3708;42.632;23.378;2022-12-07T02:34:42;94205.16;;;8.24;63.85
7335;BME280;3708;42.632;23.378;2022-12-07T02:37:19;94202.63;;;8.58;63.31
7335;BME280;3708;42.632;23.378;2022-12-07T02:39:54;94204.63;;;8.87;62.40
7335;BME280;3708;42.632;23.378;2022-12-07T02:42:30;94198.16;;;8.93;62.07
7335;BME280;3708;42.632;23.378;2022-12-07T02:45:00;94195.84;;;9.00;61.83
7335;BME280;3708;42.632;23.378;2022-12-07T02:47:31;94205.69;;;9.03;61.64
7335;BME280;3708;42.632;23.378;2022-12-07T02:50:15;94207.25;;;8.78;61.59
7335;BME280;3708;42.632;23.378;2022-12-07T02:52:44;94213.97;;;8.36;63.51
7335;BME280;3708;42.632;23.378;2022-12-07T02:55:13;94209.88;;;8.05;64.09
7335;BME280;3708;42.632;23.378;2022-12-07T02:58:03;94202.44;;;8.29;64.11
7335;BME280;3708;42.632;23.378;2022-12-07T03:00:42;94203.84;;;8.61;62.86
7335;BME280;3708;42.632;23.378;2022-12-07T03:03:12;94197.38;;;7.76;65.33
7335;BME280;3708;42.632;23.378;2022-12-07T03:05:54;94178.09;;;7.55;66.23
7335;BME280;3708;42.632;23.378;2022-12-07T03:08:31;94181.56;;;8.37;65.22
7335;BME280;3708;42.632;23.378;2022-12-07T03:11:04;94184.81;;;8.52;63.20
7335;BME280;3708;42.632;23.378;2022-12-07T03:13:37;94177.00;;;8.60;63.21
7335;BME280;3708;42.632;23.378;2022-12-07T03:16:09;94185.13;;;8.76;62.75
7335;BME280;3708;42.632;23.378;2022-12-07T03:18:43;94175.41;;;9.10;61.97
7335;BME280;3708;42.632;23.378;2022-12-07T03:21:15;94178.78;;;9.11;61.41
7335;BME280;3708;42.632;23.378;2022-12-07T03:23:47;94175.22;;;9.33;61.22
7335;BME280;3708;42.632;23.378;2022-12-07T03:26:16;94181.97;;;9.34;60.53
7335;BME280;3708;42.632;23.378;2022-12-07T03:28:52;94181.59;;;9.52;60.21
7335;BME280;3708;42.632;23.378;2022-12-07T03:31:25;94171.09;;;9.06;60.83
7335;BME280;3708;42.632;23.378;2022-12-07T03:33:57;94177.72;;;8.43;62.27
7335;BME280;3708;42.632;23.378;2022-12-07T03:36:31;94178.00;;;8.25;63.19
7335;BME280;3708;42.632;23.378;2022-12-07T03:39:03;94179.34;;;8.14;63.71
7335;BME280;3708;42.632;23.378;2022-12-07T03:41:37;94176.75;;;7.66;65.32
7335;BME280;3708;42.632;23.378;2022-12-07T03:44:06;94178.97;;;7.81;65.46
7335;BME280;3708;42.632;23.378;2022-12-07T03:46:52;94178.50;;;7.79;65.18
7335;BME280;3708;42.632;23.378;2022-12-07T03:49:26;94184.84;;;7.56;66.37
7335;BME280;3708;42.632;23.378;2022-12-07T03:52:02;94179.13;;;7.76;66.63
7335;BME280;3708;42.632;23.378;2022-12-07T03:54:36;94177.88;;;8.30;64.47
7335;BME280;3708;42.632;23.378;2022-12-07T03:57:05;94174.41;;;7.95;64.96
7335;BME280;3708;42.632;23.378;2022-12-07T03:59:33;94171.50;;;7.97;65.03
7335;BME280;3708;42.632;23.378;2022-12-07T04:02:04;94175.13;;;8.35;64.07
7335;BME280;3708;42.632;23.378;2022-12-07T04:04:35;94174.84;;;8.54;63.42
7335;BME280;3708;42.632;23.378;2022-12-07T04:07:02;94169.28;;;8.81;62.73
7335;BME280;3708;42.632;23.378;2022-12-07T04:09:30;94168.81;;;8.96;62.54
7335;BME280;3708;42.632;23.378;2022-12-07T04:11:57;94174.38;;;8.86;62.51
7335;BME280;3708;42.632;23.378;2022-12-07T04:14:23;94170.09;;;8.56;62.23
7335;BME280;3708;42.632;23.378;2022-12-07T04:16:54;94169.16;;;8.52;63.11
7335;BME280;3708;42.632;23.378;2022-12-07T04:19:26;94171.00;;;8.77;62.38
7335;BME280;3708;42.632;23.378;2022-12-07T04:21:54;94172.81;;;8.76;61.92
7335;BME280;3708;42.632;23.378;2022-12-07T04:24:21;94170.53;;;8.83;61.97
7335;BME280;3708;42.632;23.378;2022-12-07T04:26:49;94163.72;;;8.99;61.81
7335;BME280;3708;42.632;23.378;2022-12-07T04:29:16;94170.66;;;8.95;61.12
7335;BME280;3708;42.632;23.378;2022-12-07T04:31:45;94163.28;;;8.89;61.47
7335;BME280;3708;42.632;23.378;2022-12-07T04:34:12;94178.22;;;8.88;61.77
7335;BME280;3708;42.632;23.378;2022-12-07T04:36:41;94185.41;;;8.49;61.72
7335;BME280;3708;42.632;23.378;2022-12-07T04:39:17;94176.75;;;8.22;63.28
7335;BME280;3708;42.632;23.378;2022-12-07T04:41:44;94184.50;;;8.62;62.47
7335;BME280;3708;42.632;23.378;2022-12-07T04:44:13;94178.38;;;8.66;62.04
7335;BME280;3708;42.632;23.378;2022-12-07T04:46:41;94182.66;;;8.36;62.55
7335;BME280;3708;42.632;23.378;2022-12-07T04:49:08;94188.72;;;8.06;63.62
7335;BME280;3708;42.632;23.378;2022-12-07T04:51:36;94180.25;;;8.09;63.50
7335;BME280;3708;42.632;23.378;2022-12-07T04:54:04;94184.69;;;8.00;63.89
7335;BME280;3708;42.632;23.378;2022-12-07T04:56:39;94185.50;;;7.31;66.69
7335;BME280;3708;42.632;23.378;2022-12-07T04:59:06;94183.13;;;7.43;65.92
7335;BME280;3708;42.632;23.378;2022-12-07T05:01:54;94178.09;;;7.55;66.17
7335;BME280;3708;42.632;23.378;2022-12-07T05:04:22;94176.09;;;7.91;65.57
7335;BME280;3708;42.632;23.378;2022-12-07T05:06:52;94184.97;;;7.90;65.28
7335;BME280;3708;42.632;23.378;2022-12-07T05:09:21;94179.34;;;8.14;64.66
7335;BME280;3708;42.632;23.378;2022-12-07T05:11:53;94187.69;;;8.33;63.52
7335;BME280;3708;42.632;23.378;2022-12-07T05:14:22;94184.16;;;8.29;64.21
7335;BME280;3708;42.632;23.378;2022-12-07T05:16:50;94177.72;;;8.43;63.59
7335;BME280;3708;42.632;23.378;2022-12-07T05:19:19;94178.34;;;8.32;62.80
7335;BME280;3708;42.632;23.378;2022-12-07T05:21:46;94184.22;;;7.98;63.81
7335;BME280;3708;42.632;23.378;2022-12-07T05:24:16;94194.72;;;7.37;66.32
7335;BME280;3708;42.632;23.378;2022-12-07T05:26:45;94183.78;;;6.96;68.43
7335;BME280;3708;42.632;23.378;2022-12-07T05:29:13;94176.50;;;6.62;69.43
7335;BME280;3708;42.632;23.378;2022-12-07T05:31:40;94182.91;;;6.42;70.34
7335;BME280;3708;42.632;23.378;2022-12-07T05:34:08;94179.69;;;6.59;70.28
7335;BME280;3708;42.632;23.378;2022-12-07T05:36:36;94178.72;;;7.21;68.47
7335;BME280;3708;42.632;23.378;2022-12-07T05:39:04;94196.53;;;7.28;67.66
7335;BME280;3708;42.632;23.378;2022-12-07T05:41:31;94180.22;;;6.91;68.36
7335;BME280;3708;42.632;23.378;2022-12-07T05:44:18;94179.56;;;7.39;68.03
7335;BME280;3708;42.632;23.378;2022-12-07T05:46:45;94167.72;;;7.72;66.80
7335;BME280;3708;42.632;23.378;2022-12-07T05:49:12;94170.25;;;7.94;66.17
7335;BME280;3708;42.632;23.378;2022-12-07T05:51:39;94178.28;;;8.06;65.86
7335;BME280;3708;42.632;23.378;2022-12-07T05:54:06;94177.16;;;7.51;66.33
7335;BME280;3708;42.632;23.378;2022-12-07T05:56:33;94172.34;;;7.75;65.63
7335;BME280;3708;42.632;23.378;2022-12-07T05:59:01;94170.34;;;8.28;65.52
7335;BME280;3708;42.632;23.378;2022-12-07T06:01:47;94171.31;;;8.50;64.19
7335;BME280;3708;42.632;23.378;2022-12-07T06:04:14;94171.78;;;8.69;64.07
7335;BME280;3708;42.632;23.378;2022-12-07T06:06:41;94173.47;;;8.82;63.26
7335;BME280;3708;42.632;23.378;2022-12-07T06:09:08;94167.44;;;8.98;63.30
7335;BME280;3708;42.632;23.378;2022-12-07T06:11:35;94176.66;;;8.87;62.68
7335;BME280;3708;42.632;23.378;2022-12-07T06:14:20;94178.34;;;9.00;61.78
7335;BME280;3708;42.632;23.378;2022-12-07T06:16:49;94169.91;;;9.03;61.77
7335;BME280;3708;42.632;23.378;2022-12-07T06:19:16;94176.47;;;9.18;61.83
7335;BME280;3708;42.632;23.378;2022-12-07T06:21:43;94181.69;;;9.18;61.34
7335;BME280;3708;42.632;23.378;2022-12-07T06:24:11;94176.78;;;9.25;61.35
7335;BME280;3708;42.632;23.378;2022-12-07T06:26:38;94178.94;;;9.06;61.13
7335;BME280;3708;42.632;23.378;2022-12-07T06:29:06;94184.34;;;9.09;60.75
7335;BME280;3708;42.632;23.378;2022-12-07T06:31:33;94195.38;;;9.06;61.22
7335;BME280;3708;42.632;23.378;2022-12-07T06:34:03;94197.94;;;9.32;60.83
7335;BME280;3708;42.632;23.378;2022-12-07T06:36:32;94189.94;;;9.46;60.61
7335;BME280;3708;42.632;23.378;2022-12-07T06:38:59;94183.78;;;9.50;60.17
7335;BME280;3708;42.632;23.378;2022-12-07T06:41:29;94193.97;;;9.26;60.84
7335;BME280;3708;42.632;23.378;2022-12-07T06:43:56;94195.72;;;8.88;62.14
7335;BME280;3708;42.632;23.378;2022-12-07T06:46:23;94183.53;;;9.26;61.24
7335;BME280;3708;42.632;23.378;2022-12-07T06:48:51;94194.00;;;9.09;62.10
7335;BME280;3708;42.632;23.378;2022-12-07T06:51:20;94188.28;;;9.24;61.36
7335;BME280;3708;42.632;23.378;2022-12-07T06:53:47;94191.22;;;9.31;61.13
7335;BME280;3708;42.632;23.378;2022-12-07T06:56:15;94194.03;;;8.92;62.37
7335;BME280;3708;42.632;23.378;2022-12-07T06:58:42;94193.69;;;9.02;61.87
7335;BME280;3708;42.632;23.378;2022-12-07T07:01:10;94191.69;;;9.16;61.83
7335;BME280;3708;42.632;23.378;2022-12-07T07:03:38;94187.06;;;9.21;61.32
7335;BME280;3708;42.632;23.378;2022-12-07T07:06:07;94201.38;;;8.38;63.33
7335;BME280;3708;42.632;23.378;2022-12-07T07:08:36;94198.59;;;8.35;64.76
7335;BME280;3708;42.632;23.378;2022-12-07T07:11:03;94198.47;;;8.91;63.29
7335;BME280;3708;42.632;23.378;2022-12-07T07:13:30;94196.03;;;8.95;63.01
7335;BME280;3708;42.632;23.378;2022-12-07T07:15:57;94202.47;;;8.89;63.04
7335;BME280;3708;42.632;23.378;2022-12-07T07:18:25;94204.16;;;9.02;62.44
7335;BME280;3708;42.632;23.378;2022-12-07T07:20:52;94195.25;;;8.94;62.51
7335;BME280;3708;42.632;23.378;2022-12-07T07:23:20;94189.91;;;8.00;64.54
7335;BME280;3708;42.632;23.378;2022-12-07T07:25:49;94195.59;;;8.11;65.88
7335;BME280;3708;42.632;23.378;2022-12-07T07:28:17;94206.16;;;8.54;64.13
7335;BME280;3708;42.632;23.378;2022-12-07T07:30:44;94202.44;;;7.81;66.45
7335;BME280;3708;42.632;23.378;2022-12-07T07:33:12;94207.50;;;8.25;65.34
7335;BME280;3708;42.632;23.378;2022-12-07T07:35:39;94210.69;;;8.22;65.89
7335;BME280;3708;42.632;23.378;2022-12-07T07:38:06;94201.56;;;7.94;65.51
7335;BME280;3708;42.632;23.378;2022-12-07T07:40:34;94212.16;;;7.98;66.01
7335;BME280;3708;42.632;23.378;2022-12-07T07:43:02;94209.41;;;8.03;65.95
7335;BME280;3708;42.632;23.378;2022-12-07T07:45:29;94207.59;;;8.12;65.68
7335;BME280;3708;42.632;23.378;2022-12-07T07:47:56;94213.34;;;8.39;64.96
7335;BME280;3708;42.632;23.378;2022-12-07T07:50:23;94204.41;;;8.23;65.36
7335;BME280;3708;42.632;23.378;2022-12-07T07:52:51;94204.13;;;8.33;65.62
7335;BME280;3708;42.632;23.378;2022-12-07T07:55:18;94206.63;;;8.90;64.56
7335;BME280;3708;42.632;23.378;2022-12-07T07:57:46;94206.31;;;8.66;64.84
7335;BME280;3708;42.632;23.378;2022-12-07T08:00:17;94208.13;;;9.08;63.88
7335;BME280;3708;42.632;23.378;2022-12-07T08:02:44;94201.03;;;9.34;62.53
7335;BME280;3708;42.632;23.378;2022-12-07T08:05:12;94209.47;;;9.40;62.38
7335;BME280;3708;42.632;23.378;2022-12-07T08:07:39;94203.47;;;9.39;61.67
7335;BME280;3708;42.632;23.378;2022-12-07T08:10:08;94211.63;;;9.46;61.40
7335;BME280;3708;42.632;23.378;2022-12-07T08:12:37;94204.97;;;9.57;61.23
7335;BME280;3708;42.632;23.378;2022-12-07T08:15:28;94203.00;;;9.83;60.47
7335;BME280;3708;42.632;23.378;2022-12-07T08:17:55;94203.75;;;9.92;59.98
7335;BME280;3708;42.632;23.378;2022-12-07T08:20:22;94202.91;;;10.18;59.00
7335;BME280;3708;42.632;23.378;2022-12-07T08:22:49;94203.66;;;10.18;58.78
7335;BME280;3708;42.632;23.378;2022-12-07T08:25:16;94197.22;;;10.16;58.69
7335;BME280;3708;42.632;23.378;2022-12-07T08:27:43;94194.69;;;10.28;58.67
7335;BME280;3708;42.632;23.378;2022-12-07T08:30:10;94193.19;;;9.80;59.77
7335;BME280;3708;42.632;23.378;2022-12-07T08:32:38;94200.00;;;10.11;59.44
7335;BME280;3708;42.632;23.378;2022-12-07T08:35:06;94190.97;;;10.29;58.72
7335;BME280;3708;42.632;23.378;2022-12-07T08:37:33;94193.75;;;10.53;58.34
7335;BME280;3708;42.632;23.378;2022-12-07T08:40:00;94192.25;;;10.23;58.29
7335;BME280;3708;42.632;23.378;2022-12-07T08:42:27;94193.19;;;10.18;58.50
7335;BME280;3708;42.632;23.378;2022-12-07T08:44:55;94192.22;;;10.52;58.07
7335;BME280;3708;42.632;23.378;2022-12-07T08:47:24;94195.50;;;10.69;57.54
7335;BME280;3708;42.632;23.378;2022-12-07T08:49:53;94196.75;;;10.84;57.20
7335;BME280;3708;42.632;23.378;2022-12-07T08:52:20;94190.16;;;10.99;56.67
7335;BME280;3708;42.632;23.378;2022-12-07T08:54:48;94192.16;;;10.81;56.99
7335;BME280;3708;42.632;23.378;2022-12-07T08:57:15;94190.56;;;10.68;57.56
7335;BME280;3708;42.632;23.378;2022-12-07T08:59:42;94185.72;;;10.58;57.91
7335;BME280;3708;42.632;23.378;2022-12-07T09:02:09;94179.69;;;10.57;58.11
7335;BME280;3708;42.632;23.378;2022-12-07T09:04:36;94178.16;;;10.77;57.64
7335;BME280;3708;42.632;23.378;2022-12-07T09:07:04;94181.25;;;10.91;57.15
7335;BME280;3708;42.632;23.378;2022-12-07T09:09:32;94180.53;;;10.91;56.95
7335;BME280;3708;42.632;23.378;2022-12-07T09:11:59;94169.91;;;10.87;57.39
7335;BME280;3708;42.632;23.378;2022-12-07T09:14:25;94175.56;;;11.10;56.92
7335;BME280;3708;42.632;23.378;2022-12-07T09:16:52;94176.38;;;11.34;56.92
7335;BME280;3708;42.632;23.378;2022-12-07T09:19:19;94170.78;;;11.24;55.68
7335;BME280;3708;42.632;23.378;2022-12-07T09:21:46;94165.03;;;11.30;56.10
7335;BME280;3708;42.632;23.378;2022-12-07T09:24:14;94157.66;;;11.57;55.69
7335;BME280;3708;42.632;23.378;2022-12-07T09:26:41;94153.72;;;11.63;55.44
7335;BME280;3708;42.632;23.378;2022-12-07T09:29:09;94144.53;;;11.44;55.49
7335;BME280;3708;42.632;23.378;2022-12-07T09:31:39;94154.13;;;11.40;55.89
7335;BME280;3708;42.632;23.378;2022-12-07T09:34:06;94157.06;;;11.39;55.81
7335;BME280;3708;42.632;23.378;2022-12-07T09:36:33;94150.75;;;11.52;55.65
7335;BME280;3708;42.632;23.378;2022-12-07T09:39:00;94138.41;;;11.65;55.18
7335;BME280;3708;42.632;23.378;2022-12-07T09:41:30;94142.16;;;11.64;55.29
7335;BME280;3708;42.632;23.378;2022-12-07T09:44:03;94140.22;;;11.73;55.10
7335;BME280;3708;42.632;23.378;2022-12-07T09:46:34;94145.66;;;11.80;54.79
7335;BME280;3708;42.632;23.378;2022-12-07T09:49:03;94136.44;;;11.49;55.54
7335;BME280;3708;42.632;23.378;2022-12-07T09:51:31;94135.72;;;11.85;55.05
7335;BME280;3708;42.632;23.378;2022-12-07T09:53:59;94131.34;;;12.01;54.59
7335;BME280;3708;42.632;23.378;2022-12-07T09:56:37;94133.63;;;12.15;54.31
7335;BME280;3708;42.632;23.378;2022-12-07T09:59:04;94126.22;;;11.81;54.60
7335;BME280;3708;42.632;23.378;2022-12-07T10:01:33;94126.50;;;12.03;54.21
7335;BME280;3708;42.632;23.378;2022-12-07T10:04:06;94123.34;;;12.22;54.02
7335;BME280;3708;42.632;23.378;2022-12-07T10:06:36;94127.28;;;12.16;53.68
7335;BME280;3708;42.632;23.378;2022-12-07T10:09:09;94118.63;;;12.27;53.73
7335;BME280;3708;42.632;23.378;2022-12-07T10:12:00;94107.16;;;12.20;53.86
7335;BME280;3708;42.632;23.378;2022-12-07T10:14:28;94108.84;;;12.40;53.48
7335;BME280;3708;42.632;23.378;2022-12-07T10:16:56;94109.59;;;11.89;53.69
7335;BME280;3708;42.632;23.378;2022-12-07T10:19:25;94101.34;;;12.27;53.86
7335;BME280;3708;42.632;23.378;2022-12-07T10:22:19;94108.13;;;12.67;53.09
7335;BME280;3708;42.632;23.378;2022-12-07T10:24:46;94103.66;;;12.83;52.68
7335;BME280;3708;42.632;23.378;2022-12-07T10:27:20;94102.69;;;13.03;51.58
7335;BME280;3708;42.632;23.378;2022-12-07T10:29:50;94109.53;;;13.05;50.88
7335;BME280;3708;42.632;23.378;2022-12-07T10:32:33;94094.00;;;12.87;51.47
7335;BME280;3708;42.632;23.378;2022-12-07T10:35:22;94082.91;;;13.22;51.21
7335;BME280;3708;42.632;23.378;2022-12-07T10:37:50;94079.59;;;13.40;50.54
7335;BME280;3708;42.632;23.378;2022-12-07T10:40:31;94079.19;;;13.38;50.06
7335;BME280;3708;42.632;23.378;2022-12-07T10:43:07;94074.50;;;13.63;49.99
7335;BME280;3708;42.632;23.378;2022-12-07T10:45:58;94068.50;;;13.47;49.85
7335;BME280;3708;42.632;23.378;2022-12-07T10:48:41;94071.53;;;13.49;49.60
7335;BME280;3708;42.632;23.378;2022-12-07T10:51:12;94072.56;;;13.60;49.64
7335;BME280;3708;42.632;23.378;2022-12-07T10:53:57;94073.72;;;13.16;50.12
7335;BME280;3708;42.632;23.378;2022-12-07T10:56:51;94066.69;;;12.49;52.29
7335;BME280;3708;42.632;23.378;2022-12-07T10:59:31;94068.09;;;13.01;51.00
7335;BME280;3708;42.632;23.378;2022-12-07T11:02:10;94041.31;;;13.12;50.73
7335;BME280;3708;42.632;23.378;2022-12-07T11:04:56;94040.63;;;13.46;50.34
7335;BME280;3708;42.632;23.378;2022-12-07T11:07:34;94036.56;;;13.64;49.79
7335;BME280;3708;42.632;23.378;2022-12-07T11:10:08;94029.13;;;13.35;49.96
7335;BME280;3708;42.632;23.378;2022-12-07T11:12:55;94034.19;;;13.59;49.84
7335;BME280;3708;42.632;23.378;2022-12-07T11:15:35;94044.19;;;13.69;49.68
7335;BME280;3708;42.632;23.378;2022-12-07T11:18:11;94049.03;;;13.67;49.39
7335;BME280;3708;42.632;23.378;2022-12-07T11:20:43;94032.28;;;13.75;49.49
7335;BME280;3708;42.632;23.378;2022-12-07T11:23:18;94024.97;;;13.84;49.49
7335;BME280;3708;42.632;23.378;2022-12-07T11:25:53;94038.09;;;13.49;49.65
7335;BME280;3708;42.632;23.378;2022-12-07T11:28:34;94032.41;;;13.47;49.91
7335;BME280;3708;42.632;23.378;2022-12-07T11:31:12;94007.13;;;13.58;49.77
7335;BME280;3708;42.632;23.378;2022-12-07T11:33:47;94006.00;;;13.44;50.27
7335;BME280;3708;42.632;23.378;2022-12-07T11:36:31;94014.44;;;13.49;50.16
7335;BME280;3708;42.632;23.378;2022-12-07T11:39:02;94007.03;;;13.55;49.93
7335;BME280;3708;42.632;23.378;2022-12-07T11:41:34;94012.88;;;13.64;49.55
7335;BME280;3708;42.632;23.378;2022-12-07T11:44:06;94009.16;;;13.65;49.59
7335;BME280;3708;42.632;23.378;2022-12-07T11:46:45;94010.63;;;13.82;49.23
7335;BME280;3708;42.632;23.378;2022-12-07T11:49:19;93993.66;;;13.98;49.27
7335;BME280;3708;42.632;23.378;2022-12-07T11:51:51;93991.22;;;13.90;49.03
7335;BME280;3708;42.632;23.378;2022-12-07T11:54:25;93986.91;;;13.97;49.19
7335;BME280;3708;42.632;23.378;2022-12-07T11:56:54;93985.41;;;14.00;48.99
7335;BME280;3708;42.632;23.378;2022-12-07T11:59:27;93997.56;;;14.04;48.82
7335;BME280;3708;42.632;23.378;2022-12-07T12:02:07;93984.53;;;14.11;48.42
7335;BME280;3708;42.632;23.378;2022-12-07T12:04:47;93976.97;;;14.10;48.28
7335;BME280;3708;42.632;23.378;2022-12-07T12:07:21;93983.34;;;14.09;48.59
7335;BME280;3708;42.632;23.378;2022-12-07T12:09:53;93983.94;;;14.37;48.29
7335;BME280;3708;42.632;23.378;2022-12-07T12:12:46;93977.00;;;14.48;47.53
7335;BME280;3708;42.632;23.378;2022-12-07T12:15:29;93971.59;;;14.83;47.24
7335;BME280;3708;42.632;23.378;2022-12-07T12:18:32;93963.94;;;15.23;46.25
7335;BME280;3708;42.632;23.378;2022-12-07T12:21:08;93966.19;;;15.44;45.21
7335;BME280;3708;42.632;23.378;2022-12-07T12:23:40;93953.50;;;16.09;44.27
7335;BME280;3708;42.632;23.378;2022-12-07T12:26:15;93951.22;;;16.77;43.51
7335;BME280;3708;42.632;23.378;2022-12-07T12:29:04;93950.44;;;16.73;42.30
7335;BME280;3708;42.632;23.378;2022-12-07T12:31:47;93955.25;;;17.04;42.01
7335;BME280;3708;42.632;23.378;2022-12-07T12:34:37;93937.09;;;17.53;41.36
7335;BME280;3708;42.632;23.378;2022-12-07T12:37:42;93937.69;;;17.29;41.37
7335;BME280;3708;42.632;23.378;2022-12-07T12:43:42;93924.53;;;17.43;40.92
7335;BME280;3708;42.632;23.378;2022-12-07T12:46:38;93931.50;;;17.11;41.23
7335;BME280;3708;42.632;23.378;2022-12-07T12:49:39;93924.56;;;16.96;41.68
7335;BME280;3708;42.632;23.378;2022-12-07T12:55:13;93942.28;;;16.92;41.80
7335;BME280;3708;42.632;23.378;2022-12-07T12:57:47;93934.00;;;16.53;42.65
7335;BME280;3708;42.632;23.378;2022-12-07T13:00:18;93927.78;;;16.39;42.72
7335;BME280;3708;42.632;23.378;2022-12-07T13:02:49;93942.72;;;15.94;43.23
7335;BME280;3708;42.632;23.378;2022-12-07T13:05:30;93943.78;;;16.20;43.41
7335;BME280;3708;42.632;23.378;2022-12-07T13:08:00;93937.81;;;16.59;42.70
7335;BME280;3708;42.632;23.378;2022-12-07T13:10:37;93920.97;;;17.22;41.45
7335;BME280;3708;42.632;23.378;2022-12-07T13:13:29;93922.53;;;17.84;40.57
7335;BME280;3708;42.632;23.378;2022-12-07T13:22:51;93938.00;;;18.89;37.75
7335;BME280;3708;42.632;23.378;2022-12-07T13:25:30;93940.31;;;19.01;37.48
7335;BME280;3708;42.632;23.378;2022-12-07T13:28:02;93941.03;;;18.74;37.74
7335;BME280;3708;42.632;23.378;2022-12-07T13:30:45;93946.53;;;18.23;38.77
7335;BME280;3708;42.632;23.378;2022-12-07T13:33:13;93937.09;;;18.25;38.85
7335;BME280;3708;42.632;23.378;2022-12-07T13:35:42;93941.69;;;18.43;38.80
7335;BME280;3708;42.632;23.378;2022-12-07T13:38:25;93937.59;;;18.52;38.47
7335;BME280;3708;42.632;23.378;2022-12-07T13:43:49;93937.66;;;17.84;39.54
7335;BME280;3708;42.632;23.378;2022-12-07T13:46:22;93936.06;;;17.69;39.63
7335;BME280;3708;42.632;23.378;2022-12-07T13:48:50;93931.97;;;17.27;40.35
7335;BME280;3708;42.632;23.378;2022-12-07T13:51:20;93929.38;;;16.84;41.01
7335;BME280;3708;42.632;23.378;2022-12-07T13:53:51;93929.75;;;16.49;41.54
7335;BME280;3708;42.632;23.378;2022-12-07T13:56:22;93920.66;;;16.43;41.77
7335;BME280;3708;42.632;23.378;2022-12-07T13:58:49;93917.56;;;16.37;42.09
7335;BME280;3708;42.632;23.378;2022-12-07T14:01:16;93915.34;;;16.43;42.18
7335;BME280;3708;42.632;23.378;2022-12-07T14:03:44;93906.94;;;16.34;42.51